Pine River, MN (56474)

4:24 AM CST on December 27, 2014 (GMT -0600)
Pine River Regional | Change Station
CLOSE
Current Station
Airport
Location: Pine River,
Elevation: 1296 ft
Nearby Weather Stations

Elev 1296 ft 46.72 °N, 94.38 °W | Updated 11 minutes ago

Overcast
Overcast
19 °F
Feels Like 12 °F
N
6
Wind Variable Wind from NNW

Today
High -- | Low -- °F
--% Chance of Precip.
Yesterday
High -- | Low -- °F
Precip. -- in
8:01 AM 4:35 PM
Waxing Crescent, 35% visible
Pressure 30.09 in
Visibility 10.0 miles
Clouds Overcast 1700 ft
Windchill 12 °F
Dew Point 14 °F
Humidity 80%
Rainfall 0.00 in
Snow Depth Not available.
UV 0 out of 12
Pollen .10 out of 12
Air Quality Not available.
Flu Activity Not available.
METAR KPWC 271013Z AUTO 34005KT 10SM OVC017 M07/M10 A3009 RMK AO2

More Conditions Fewer Conditions

Pressure 30.09 in
Visibility 10.0 miles
Clouds Overcast 1700 ft
Windchill 12 °F
Dew Point 14 °F
Humidity 80%
Rainfall 0.00 in
Snow Depth Not available.
UV 0 out of 12
Pollen .10 out of 12
Air Quality Not available.
Flu Activity Not available.
METAR KPWC 271013Z AUTO 34005KT 10SM OVC017 M07/M10 A3009 RMK AO2

More Conditions Fewer Conditions

10-Day Weather Forecast

Almanac

Astronomy

Dec. 27, 2014 Rise Set
Actual Time
Civil Twilight
Nautical Twilight
Astronomical Twilight
Moon
Length of Visible Light
Length of Day
Tomorrow will be .
, % of the Moon is Illuminated

Today's Extremes

State Highs State Lows

Community

WunderPhotos

Upload Photos

1,780,869 photos uploaded!

WunderBlogs® & News

Nearby

Air Quality

  Air Quality AQ Index Pollutant
Not available.

Snow Depth

Station Depth Elevation

Earthquake Activity

City Distance Mag. Time & Date
Minimum magnitude displayed is 2.5.

Coastal Water Temperatures

Place Temperature

Nearby Weather Stations